OJAQ/AQJ METAR and TAF weather

Enter ICAO airport designator
Station Type Date Time Source
OJAQ METAR 2019/12/12 09:00 UTC NOAA

OJAQ 120900Z 20008KT CAVOK 21/12 Q1009 NOSIG


Station Type Date Time Source
OJAQ Decoded METAR 2019/12/12 09:00 UTC NOAA

Aqaba Airport, Jordan (OJAQ) 29-38N 035-01E 51M
Dec 12, 2019 - 04:00 AM EST / 2019.12.12 0900 UTC
Wind: from the SSW (200 degrees) at 9 MPH (8 KT):0
Visibility: greater than 7 mile(s):0
Temperature: 69 F (21 C)
Dew Point: 53 F (12 C)
Relative Humidity: 56%
Pressure (altimeter): 29.80 in. Hg (1009 hPa)
ob: OJAQ 120900Z 20008KT CAVOK 21/12 Q1009 NOSIG
cycle: 9

Station Type Date Time Source
OJAQ TAF 2019/12/12 06:18 UTC NOAA

TAF TAF OJAQ 120513Z 1206/1312 18008KT 7000 NSC
BECMG 1217/1219 36012KT

Example: see airport list